Time;durP1;ratioP1;P1;durP2;ratioP2;P2;SDS_P1;SDS_P2;PMS_P1;PMS_P2;Temp;Humidity;BMP_temperature;BMP_pressure;BME280_temperature;BME280_humidity;BME280_pressure;Samples;Min_cycle;Max_cycle;Signal;HPM_P1;HPM_P2
2022/07/04 00:01:20;;;;;;;8.40;6.00;;;;;;;;;;6184671;28;20343;-82
2022/07/04 00:04:21;;;;;;;8.63;6.10;;;;;;;;;;6197950;28;20405;-82
2022/07/04 00:07:21;;;;;;;10.13;5.97;;;;;;;;;;6191319;28;20112;-82
2022/07/04 00:10:21;;;;;;;7.60;5.00;;;;;;;;;;6181105;28;20112;-82
2022/07/04 00:13:21;;;;;;;9.77;6.17;;;;;;;;;;6189037;28;20065;-82
2022/07/04 00:16:22;;;;;;;10.20;6.50;;;;;;;;;;6188513;28;20037;-82
2022/07/04 00:19:22;;;;;;;9.90;6.03;;;;;;;;;;6187590;28;20034;-82
2022/07/04 00:22:22;;;;;;;10.13;5.40;;;;;;;;;;6188067;28;20116;-82
2022/07/04 00:25:22;;;;;;;9.23;6.20;;;;;;;;;;6193261;28;20026;-82
2022/07/04 00:28:23;;;;;;;10.07;6.17;;;;;;;;;;6184055;28;20162;-82
2022/07/04 00:31:23;;;;;;;7.20;5.57;;;;;;;;;;6185098;28;20031;-82
2022/07/04 00:34:23;;;;;;;7.50;6.00;;;;;;;;;;6187388;28;20112;-83
2022/07/04 00:37:23;;;;;;;8.03;5.90;;;;;;;;;;6191021;28;20017;-83
2022/07/04 00:40:23;;;;;;;8.10;5.40;;;;;;;;;;6194305;28;20457;-82
2022/07/04 00:43:24;;;;;;;9.23;6.17;;;;;;;;;;6187314;28;20026;-82
2022/07/04 00:46:24;;;;;;;10.60;5.90;;;;;;;;;;6187970;28;20046;-82
2022/07/04 00:49:25;;;;;;;6.07;4.53;;;;;;;;;;6193898;28;20027;-82
2022/07/04 00:52:25;;;;;;;7.97;5.50;;;;;;;;;;6187327;28;20076;-82
2022/07/04 00:55:26;;;;;;;8.20;5.17;;;;;;;;;;6189229;28;20054;-82
2022/07/04 00:58:26;;;;;;;9.27;6.17;;;;;;;;;;6189893;28;20029;-83
2022/07/04 01:01:27;;;;;;;9.60;5.85;;;;;;;;;;6187229;28;20057;-82
2022/07/04 01:04:27;;;;;;;9.80;5.80;;;;;;;;;;6190584;28;20522;-82
2022/07/04 01:07:28;;;;;;;9.73;5.80;;;;;;;;;;6186963;28;20106;-82
2022/07/04 01:10:28;;;;;;;9.97;5.50;;;;;;;;;;6190232;28;20054;-82
2022/07/04 01:13:28;;;;;;;9.45;6.35;;;;;;;;;;6186611;28;20014;-82
2022/07/04 01:16:28;;;;;;;8.10;5.82;;;;;;;;;;6187317;28;20460;-82
2022/07/04 01:19:29;;;;;;;8.77;5.93;;;;;;;;;;6185431;28;20555;-82
2022/07/04 01:22:29;;;;;;;7.85;4.95;;;;;;;;;;6186436;28;20105;-82
2022/07/04 01:25:30;;;;;;;9.40;5.20;;;;;;;;;;6186034;28;20019;-82
2022/07/04 01:28:30;;;;;;;9.15;5.20;;;;;;;;;;6187425;28;20023;-82
2022/07/04 01:31:30;;;;;;;8.65;5.18;;;;;;;;;;6187287;28;20089;-82
2022/07/04 01:34:30;;;;;;;8.30;5.33;;;;;;;;;;6186395;28;20022;-82
2022/07/04 01:37:30;;;;;;;9.47;5.90;;;;;;;;;;6186583;28;21054;-82
2022/07/04 01:40:30;;;;;;;9.20;5.67;;;;;;;;;;6187257;28;20253;-82
2022/07/04 01:43:31;;;;;;;9.48;5.70;;;;;;;;;;6186032;28;20262;-82
2022/07/04 01:46:32;;;;;;;8.40;5.20;;;;;;;;;;6187739;28;20344;-82
2022/07/04 01:49:32;;;;;;;7.97;5.27;;;;;;;;;;6186438;28;20058;-82
2022/07/04 01:52:33;;;;;;;9.55;5.85;;;;;;;;;;6188109;28;20064;-82
2022/07/04 01:55:33;;;;;;;9.73;6.07;;;;;;;;;;6186068;28;20117;-82
2022/07/04 01:58:34;;;;;;;8.98;5.30;;;;;;;;;;6191014;28;20037;-82
2022/07/04 02:01:34;;;;;;;10.70;5.63;;;;;;;;;;6190211;28;20061;-82
2022/07/04 02:04:35;;;;;;;10.53;5.90;;;;;;;;;;6190294;28;20429;-82
2022/07/04 02:07:35;;;;;;;7.53;5.38;;;;;;;;;;6191719;28;20022;-82
2022/07/04 02:10:36;;;;;;;8.20;5.43;;;;;;;;;;6195031;28;20050;-82
2022/07/04 02:13:36;;;;;;;8.85;6.25;;;;;;;;;;6193763;28;20285;-82
2022/07/04 02:16:38;;;;;;;12.45;5.90;;;;;;;;;;6192747;28;20026;-82
2022/07/04 02:19:38;;;;;;;;;;;;;;;;;;6192664;28;20021;-82
2022/07/04 02:22:38;;;;;;;7.53;5.53;;;;;;;;;;6192321;28;19906;-83
2022/07/04 02:25:38;;;;;;;10.27;6.00;;;;;;;;;;6192276;28;20022;-82
2022/07/04 02:28:39;;;;;;;10.70;6.70;;;;;;;;;;6189975;28;20022;-82
2022/07/04 02:31:39;;;;;;;10.60;6.07;;;;;;;;;;6190546;28;20389;-82
2022/07/04 02:34:39;;;;;;;8.87;5.47;;;;;;;;;;6190467;28;20265;-82
2022/07/04 02:37:39;;;;;;;9.35;5.68;;;;;;;;;;6190851;28;20112;-82
2022/07/04 02:40:40;;;;;;;11.23;6.78;;;;;;;;;;6192521;28;20022;-82
2022/07/04 02:43:40;;;;;;;9.18;5.38;;;;;;;;;;6192638;28;20018;-82
2022/07/04 02:46:40;;;;;;;9.57;6.15;;;;;;;;;;6192470;28;20026;-82
2022/07/04 02:49:40;;;;;;;11.57;6.05;;;;;;;;;;6191182;28;20093;-82
2022/07/04 02:52:40;;;;;;;11.13;5.53;;;;;;;;;;6196124;28;20037;-82
2022/07/04 02:55:41;;;;;;;8.37;5.40;;;;;;;;;;6195253;28;20265;-82
2022/07/04 02:58:41;;;;;;;8.23;5.95;;;;;;;;;;6194070;28;20257;-82
2022/07/04 03:01:41;;;;;;;10.15;5.93;;;;;;;;;;6197035;28;20073;-82
2022/07/04 03:04:41;;;;;;;8.32;5.93;;;;;;;;;;6190280;28;20022;-82
2022/07/04 03:07:41;;;;;;;7.23;4.80;;;;;;;;;;6193499;28;20026;-82
2022/07/04 03:10:42;;;;;;;8.47;5.70;;;;;;;;;;6190075;28;20301;-82
2022/07/04 03:13:42;;;;;;;7.33;4.77;;;;;;;;;;6190993;28;20375;-84
2022/07/04 03:16:42;;;;;;;7.83;4.90;;;;;;;;;;6190611;28;20266;-82
2022/07/04 03:19:42;;;;;;;8.50;4.55;;;;;;;;;;6186020;28;20254;-82
2022/07/04 03:22:42;;;;;;;6.83;4.43;;;;;;;;;;6185513;28;20030;-82
2022/07/04 03:25:43;;;;;;;9.60;5.20;;;;;;;;;;6190063;28;20335;-82
2022/07/04 03:28:43;;;;;;;6.80;4.50;;;;;;;;;;6195299;28;20545;-82
2022/07/04 03:31:43;;;;;;;6.90;4.68;;;;;;;;;;6193456;28;20281;-83
2022/07/04 03:34:43;;;;;;;6.38;4.63;;;;;;;;;;6196425;28;20026;-83
2022/07/04 03:37:43;;;;;;;6.13;4.95;;;;;;;;;;6193350;28;20014;-82
2022/07/04 03:40:44;;;;;;;9.43;5.47;;;;;;;;;;6191947;28;20669;-82
2022/07/04 03:43:44;;;;;;;8.07;5.13;;;;;;;;;;6174846;28;20034;-82
2022/07/04 03:46:44;;;;;;;10.13;6.70;;;;;;;;;;6186791;28;20022;-82
2022/07/04 03:49:44;;;;;;;11.35;7.88;;;;;;;;;;6189919;28;20018;-82
2022/07/04 03:52:44;;;;;;;13.88;7.57;;;;;;;;;;6189349;28;20271;-83
2022/07/04 03:55:45;;;;;;;10.07;7.17;;;;;;;;;;6190795;28;20141;-83
2022/07/04 03:58:48;;;;;;;15.00;8.18;;;;;;;;;;6197934;28;20010;-83
2022/07/04 04:01:48;;;;;;;10.90;8.25;;;;;;;;;;6181881;28;20065;-83
2022/07/04 04:08:07;;;;;;;10.07;7.43;;;;;;;;;;6191381;28;20042;-83
2022/07/04 04:11:08;;;;;;;10.17;6.73;;;;;;;;;;6191694;28;20089;-83
2022/07/04 04:14:08;;;;;;;10.60;7.28;;;;;;;;;;6191094;28;20025;-83
2022/07/04 04:17:08;;;;;;;12.63;6.43;;;;;;;;;;6188609;28;20109;-83
2022/07/04 04:20:08;;;;;;;11.90;7.90;;;;;;;;;;6184581;28;20028;-83
2022/07/04 04:23:08;;;;;;;12.38;7.85;;;;;;;;;;6183997;28;20019;-83
2022/07/04 04:26:09;;;;;;;10.67;7.20;;;;;;;;;;6190016;28;20037;-82
2022/07/04 04:29:09;;;;;;;12.52;7.85;;;;;;;;;;6190800;28;20076;-83
2022/07/04 04:32:09;;;;;;;10.37;7.60;;;;;;;;;;6194204;28;20423;-83
2022/07/04 04:35:09;;;;;;;14.67;8.40;;;;;;;;;;6195215;28;20018;-83
2022/07/04 04:38:10;;;;;;;13.27;7.10;;;;;;;;;;6193657;28;20018;-82
2022/07/04 04:41:10;;;;;;;10.30;7.30;;;;;;;;;;6191372;28;20101;-82
2022/07/04 04:44:10;;;;;;;9.50;7.00;;;;;;;;;;6191334;28;20478;-82
2022/07/04 04:47:10;;;;;;;11.00;7.70;;;;;;;;;;6186598;28;20023;-83
2022/07/04 04:50:12;;;;;;;13.97;8.53;;;;;;;;;;6182400;28;20236;-83
2022/07/04 04:53:12;;;;;;;13.25;7.78;;;;;;;;;;6188641;28;20026;-83
2022/07/04 04:56:12;;;;;;;9.00;6.50;;;;;;;;;;6189075;28;20533;-83
2022/07/04 04:59:12;;;;;;;10.23;6.80;;;;;;;;;;6189134;28;20026;-83
2022/07/04 05:02:13;;;;;;;12.50;7.18;;;;;;;;;;6184951;28;20057;-83
2022/07/04 05:05:13;;;;;;;10.03;6.73;;;;;;;;;;6182743;28;20034;-83
2022/07/04 05:08:13;;;;;;;10.27;7.73;;;;;;;;;;6186150;28;20120;-83
2022/07/04 05:11:13;;;;;;;9.77;6.77;;;;;;;;;;6186734;28;20434;-83
2022/07/04 05:14:14;;;;;;;12.67;6.70;;;;;;;;;;6185049;28;20552;-83
2022/07/04 05:17:14;;;;;;;11.80;6.77;;;;;;;;;;6181120;28;20050;-83
2022/07/04 05:20:14;;;;;;;9.57;6.57;;;;;;;;;;6187791;28;20097;-83
2022/07/04 05:23:15;;;;;;;10.23;6.65;;;;;;;;;;6183885;28;20022;-82
2022/07/04 05:26:15;;;;;;;10.30;6.60;;;;;;;;;;6183620;28;20386;-82
2022/07/04 05:29:15;;;;;;;11.13;6.70;;;;;;;;;;6186365;28;20118;-82
2022/07/04 05:32:15;;;;;;;9.13;6.57;;;;;;;;;;6182994;28;20018;-82
2022/07/04 05:35:16;;;;;;;8.83;6.73;;;;;;;;;;6185067;28;20014;-82
2022/07/04 05:38:16;;;;;;;10.87;7.20;;;;;;;;;;6184313;28;20510;-82
2022/07/04 05:41:16;;;;;;;9.07;6.23;;;;;;;;;;6180788;28;20019;-82
2022/07/04 05:44:16;;;;;;;8.93;6.10;;;;;;;;;;6190955;28;20072;-82
2022/07/04 05:47:16;;;;;;;10.20;6.55;;;;;;;;;;6183990;28;20544;-82
2022/07/04 05:50:17;;;;;;;14.20;8.47;;;;;;;;;;6197306;28;20019;-83
2022/07/04 05:53:17;;;;;;;9.30;7.10;;;;;;;;;;6187275;28;20027;-83
2022/07/04 05:56:17;;;;;;;8.30;5.43;;;;;;;;;;6186517;28;20037;-83
2022/07/04 05:59:17;;;;;;;;;;;;;;;;;;6184114;28;20752;-83
2022/07/04 06:02:17;;;;;;;12.57;6.93;;;;;;;;;;6177102;28;19921;-83
2022/07/04 06:05:18;;;;;;;;;;;;;;;;;;6176189;28;20152;-83
2022/07/04 06:08:18;;;;;;;11.93;6.53;;;;;;;;;;6178081;28;19999;-83
2022/07/04 06:11:18;;;;;;;8.90;6.35;;;;;;;;;;6186044;28;20440;-83
2022/07/04 06:14:18;;;;;;;8.80;6.07;;;;;;;;;;6187763;28;20681;-83
2022/07/04 06:17:19;;;;;;;12.03;6.43;;;;;;;;;;6188114;28;20096;-83
2022/07/04 06:20:20;;;;;;;7.97;6.28;;;;;;;;;;6188084;28;20026;-83
2022/07/04 06:23:20;;;;;;;10.57;6.05;;;;;;;;;;6184812;28;20026;-84
2022/07/04 06:26:21;;;;;;;10.40;6.18;;;;;;;;;;6186616;28;20023;-83
2022/07/04 06:29:21;;;;;;;8.93;6.23;;;;;;;;;;6184650;28;20018;-83
2022/07/04 06:32:21;;;;;;;11.15;6.50;;;;;;;;;;6185728;28;20023;-83
2022/07/04 06:38:48;;;;;;;11.15;6.93;;;;;;;;;;6189402;28;20046;-83
2022/07/04 06:41:48;;;;;;;9.67;6.57;;;;;;;;;;6186680;28;20476;-83
2022/07/04 06:44:48;;;;;;;8.87;5.60;;;;;;;;;;6187392;28;20014;-84
2022/07/04 06:47:48;;;;;;;9.30;6.40;;;;;;;;;;6187475;28;20026;-84
2022/07/04 06:50:48;;;;;;;10.53;6.50;;;;;;;;;;6188719;28;20050;-84
2022/07/04 06:53:49;;;;;;;9.10;6.30;;;;;;;;;;6183023;28;20029;-84
2022/07/04 06:56:50;;;;;;;10.18;6.30;;;;;;;;;;6191728;28;20457;-84
2022/07/04 06:59:51;;;;;;;10.95;5.72;;;;;;;;;;6191231;28;20032;-84
2022/07/04 07:02:51;;;;;;;9.70;6.30;;;;;;;;;;6185041;28;20030;-84
2022/07/04 07:05:51;;;;;;;10.85;7.15;;;;;;;;;;6186762;28;20014;-84
2022/07/04 07:08:52;;;;;;;10.23;6.33;;;;;;;;;;6188748;28;20114;-84
2022/07/04 07:11:52;;;;;;;7.57;6.07;;;;;;;;;;6177250;28;20422;-84
2022/07/04 07:14:52;;;;;;;11.03;6.70;;;;;;;;;;6177692;28;20113;-84
2022/07/04 07:17:52;;;;;;;12.95;6.00;;;;;;;;;;6185201;28;20011;-84
2022/07/04 07:20:53;;;;;;;13.60;6.97;;;;;;;;;;6174638;28;20090;-84
2022/07/04 07:23:53;;;;;;;9.13;6.93;;;;;;;;;;6177217;28;20398;-84
2022/07/04 07:26:53;;;;;;;10.15;6.10;;;;;;;;;;6179169;28;20030;-84
2022/07/04 07:29:53;;;;;;;8.10;5.47;;;;;;;;;;6177874;28;20578;-84
2022/07/04 07:32:54;;;;;;;10.52;7.07;;;;;;;;;;6186882;28;20026;-84
2022/07/04 07:35:54;;;;;;;11.23;5.97;;;;;;;;;;6174972;28;20109;-85
2022/07/04 07:38:55;;;;;;;8.93;6.03;;;;;;;;;;6175283;28;20025;-84
2022/07/04 07:41:56;;;;;;;8.25;6.35;;;;;;;;;;6175535;28;20034;-84
2022/07/04 07:44:57;;;;;;;10.07;6.25;;;;;;;;;;6180888;28;20045;-84
2022/07/04 07:47:57;;;;;;;14.38;5.22;;;;;;;;;;6183026;28;20390;-84
2022/07/04 07:50:57;;;;;;;10.43;5.13;;;;;;;;;;6176528;28;20260;-85
2022/07/04 07:53:58;;;;;;;10.50;5.90;;;;;;;;;;6171638;28;20057;-84
2022/07/04 07:56:58;;;;;;;6.45;5.13;;;;;;;;;;6179397;28;20553;-84
2022/07/04 07:59:58;;;;;;;8.50;5.33;;;;;;;;;;6191678;28;20026;-84
2022/07/04 08:06:17;;;;;;;8.93;5.30;;;;;;;;;;6183087;28;20030;-84
2022/07/04 08:09:18;;;;;;;6.57;5.47;;;;;;;;;;6185364;28;20053;-84
2022/07/04 08:12:18;;;;;;;7.10;4.97;;;;;;;;;;6182568;28;20018;-84
2022/07/04 08:15:18;;;;;;;6.23;4.17;;;;;;;;;;6176698;28;20026;-84
2022/07/04 08:18:18;;;;;;;6.57;4.40;;;;;;;;;;6177430;28;20244;-84
2022/07/04 08:21:18;;;;;;;9.07;5.27;;;;;;;;;;6189423;28;20351;-85
2022/07/04 08:24:19;;;;;;;8.10;5.60;;;;;;;;;;6174125;28;20054;-85
2022/07/04 08:27:22;;;;;;;9.45;5.43;;;;;;;;;;6179759;28;20097;-84
2022/07/04 08:30:22;;;;;;;6.72;5.35;;;;;;;;;;6180141;28;20109;-84
2022/07/04 08:33:23;;;;;;;8.80;5.77;;;;;;;;;;6181118;28;20027;-84
2022/07/04 08:36:23;;;;;;;8.63;5.65;;;;;;;;;;6177953;28;20265;-85
2022/07/04 08:39:23;;;;;;;5.90;4.40;;;;;;;;;;6172568;28;20019;-85
2022/07/04 08:42:23;;;;;;;7.83;5.40;;;;;;;;;;6179686;28;20022;-85
2022/07/04 08:45:26;;;;;;;8.63;4.70;;;;;;;;;;6183421;28;20101;-85
2022/07/04 08:48:26;;;;;;;6.45;4.57;;;;;;;;;;6188951;28;20438;-85
2022/07/04 08:51:37;;;;;;;6.30;4.73;;;;;;;;;;6181428;28;20025;-85
2022/07/04 09:01:17;;;;;;;12.40;6.32;;;;;;;;;;6188948;28;20026;-85
2022/07/04 09:04:19;;;;;;;9.77;5.80;;;;;;;;;;6182365;28;20501;-85
2022/07/04 09:07:19;;;;;;;8.35;5.57;;;;;;;;;;6188222;28;20378;-85
2022/07/04 09:10:20;;;;;;;8.63;5.43;;;;;;;;;;6177595;28;20047;-85
2022/07/04 09:13:20;;;;;;;8.85;5.38;;;;;;;;;;6188312;28;20253;-85
2022/07/04 09:16:21;;;;;;;7.70;5.10;;;;;;;;;;6187385;28;20323;-85
2022/07/04 09:19:21;;;;;;;7.35;5.22;;;;;;;;;;6183611;28;20031;-85
2022/07/04 09:22:26;;;;;;;9.93;4.87;;;;;;;;;;6187737;28;20072;-85
2022/07/04 09:25:26;;;;;;;8.98;5.18;;;;;;;;;;6188812;28;20077;-85
2022/07/04 09:28:28;;;;;;;9.57;5.70;;;;;;;;;;6188169;28;20026;-85
2022/07/04 09:31:29;;;;;;;8.65;5.97;;;;;;;;;;6180087;28;20356;-85
2022/07/04 09:34:30;;;;;;;7.93;5.65;;;;;;;;;;6171701;28;20045;-84
2022/07/04 09:37:41;;;;;;;9.77;5.93;;;;;;;;;;6178171;28;20018;-83
2022/07/04 09:44:04;;;;;;;9.23;6.72;;;;;;;;;;6182560;28;20034;-84
2022/07/04 09:47:24;;;;;;;7.50;5.78;;;;;;;;;;6187599;28;20080;-84
2022/07/04 09:50:27;;;;;;;9.15;7.20;;;;;;;;;;6175737;28;20021;-83
2022/07/04 09:53:27;;;;;;;9.73;5.97;;;;;;;;;;6183465;28;20046;-84
2022/07/04 09:56:40;;;;;;;9.07;6.38;;;;;;;;;;6183789;28;20354;-83
2022/07/04 09:59:41;;;;;;;9.18;5.70;;;;;;;;;;6187986;28;20026;-83
2022/07/04 10:02:41;;;;;;;8.00;5.50;;;;;;;;;;6184111;28;20064;-83
2022/07/04 10:05:41;;;;;;;8.38;5.57;;;;;;;;;;6183091;28;20026;-83
2022/07/04 10:08:42;;;;;;;9.90;5.38;;;;;;;;;;6184745;28;20023;-82
2022/07/04 10:11:43;;;;;;;10.73;6.38;;;;;;;;;;6182914;28;20049;-82
2022/07/04 10:14:43;;;;;;;10.80;5.78;;;;;;;;;;6185751;28;20026;-82
2022/07/04 10:17:44;;;;;;;10.53;5.57;;;;;;;;;;6183879;28;20057;-82
2022/07/04 10:20:44;;;;;;;7.57;5.77;;;;;;;;;;6185523;28;20018;-83
2022/07/04 10:23:45;;;;;;;7.63;5.43;;;;;;;;;;6182119;28;20021;-82
2022/07/04 10:26:45;;;;;;;6.72;5.03;;;;;;;;;;6180657;28;20104;-82
2022/07/04 10:29:45;;;;;;;6.93;5.47;;;;;;;;;;6187610;28;20021;-82
2022/07/04 10:32:46;;;;;;;11.23;5.90;;;;;;;;;;6188294;28;20041;-82
2022/07/04 10:35:46;;;;;;;7.18;4.95;;;;;;;;;;6184619;28;20038;-82
2022/07/04 10:38:51;;;;;;;8.98;5.63;;;;;;;;;;6191008;28;20057;-82
2022/07/04 10:41:58;;;;;;;7.60;5.55;;;;;;;;;;6192363;28;20441;-82
2022/07/04 10:45:00;;;;;;;10.75;4.70;;;;;;;;;;6164270;28;20030;-82
2022/07/04 10:48:00;;;;;;;8.60;5.45;;;;;;;;;;6192549;28;20053;-83
2022/07/04 10:51:05;;;;;;;7.83;5.17;;;;;;;;;;6195464;28;20530;-82
2022/07/04 10:54:07;;;;;;;8.52;5.03;;;;;;;;;;6197244;28;20033;-82
2022/07/04 10:57:13;;;;;;;8.82;5.13;;;;;;;;;;6190112;28;20025;-83
2022/07/04 11:00:13;;;;;;;11.32;5.32;;;;;;;;;;6193246;28;20072;-82
2022/07/04 11:03:17;;;;;;;8.63;4.73;;;;;;;;;;6195418;28;20022;-82
2022/07/04 11:06:46;;;;;;;8.05;4.38;;;;;;;;;;6190005;28;20333;-82
2022/07/04 11:10:06;;;;;;;8.43;5.22;;;;;;;;;;6193905;28;20053;-82
2022/07/04 11:13:07;;;;;;;8.55;4.38;;;;;;;;;;6172248;28;20026;-82
2022/07/04 11:16:07;;;;;;;8.00;5.03;;;;;;;;;;6175702;28;20454;-82
2022/07/04 11:19:08;;;;;;;6.25;4.25;;;;;;;;;;6189229;28;20771;-82
2022/07/04 11:22:10;;;;;;;5.30;2.90;;;;;;;;;;6187117;28;20512;-82
2022/07/04 11:25:12;;;;;;;4.28;3.38;;;;;;;;;;6184169;28;20033;-82
2022/07/04 11:28:22;;;;;;;5.50;3.67;;;;;;;;;;6194606;28;20022;-82
2022/07/04 11:31:33;;;;;;;5.35;3.42;;;;;;;;;;6193308;28;20026;-82
2022/07/04 11:34:34;;;;;;;5.85;2.50;;;;;;;;;;6190709;28;20544;-82
2022/07/04 11:37:34;;;;;;;2.88;2.38;;;;;;;;;;6194113;28;20050;-82
2022/07/04 11:47:25;;;;;;;5.63;2.35;;;;;;;;;;6185717;28;20061;-83
2022/07/04 11:50:25;;;;;;;4.72;2.60;;;;;;;;;;6188097;28;20015;-83
2022/07/04 11:53:25;;;;;;;2.75;2.22;;;;;;;;;;6189087;28;20701;-83
2022/07/04 11:56:25;;;;;;;2.67;2.45;;;;;;;;;;6181591;28;20037;-83
2022/07/04 11:59:26;;;;;;;3.20;2.67;;;;;;;;;;6190435;28;20057;-83
2022/07/04 12:02:27;;;;;;;4.97;2.80;;;;;;;;;;6193129;28;20030;-83
2022/07/04 12:05:28;;;;;;;5.00;2.58;;;;;;;;;;6188792;28;20146;-83
2022/07/04 12:08:28;;;;;;;2.53;2.17;;;;;;;;;;6189646;28;20097;-83
2022/07/04 12:11:47;;;;;;;3.90;2.67;;;;;;;;;;6190620;28;20069;-84
2022/07/04 12:14:58;;;;;;;4.97;2.92;;;;;;;;;;6189477;28;20066;-83
2022/07/04 12:17:59;;;;;;;4.57;2.55;;;;;;;;;;6183702;28;20065;-83
2022/07/04 12:21:15;;;;;;;5.30;2.47;;;;;;;;;;6185405;28;20023;-83
2022/07/04 12:24:16;;;;;;;5.88;2.53;;;;;;;;;;6180514;28;20588;-83
2022/07/04 12:27:20;;;;;;;4.65;2.78;;;;;;;;;;6182274;28;20054;-83
2022/07/04 12:30:20;;;;;;;6.25;2.35;;;;;;;;;;6178653;28;20030;-83
2022/07/04 12:33:22;;;;;;;5.95;2.83;;;;;;;;;;6172898;28;20041;-83
2022/07/04 12:36:22;;;;;;;7.28;2.65;;;;;;;;;;6174386;28;20733;-83
2022/07/04 12:39:26;;;;;;;4.43;2.50;;;;;;;;;;6169401;28;20075;-84
2022/07/04 12:42:32;;;;;;;4.53;2.63;;;;;;;;;;6173727;28;20453;-84
2022/07/04 12:45:43;;;;;;;4.10;2.78;;;;;;;;;;6181223;28;20050;-84
2022/07/04 12:48:43;;;;;;;7.15;3.00;;;;;;;;;;6177271;28;20038;-84
2022/07/04 12:51:43;;;;;;;7.80;2.90;;;;;;;;;;6184642;28;20052;-84
2022/07/04 12:54:47;;;;;;;7.20;2.90;;;;;;;;;;6185242;28;20026;-84
2022/07/04 12:57:47;;;;;;;3.67;2.97;;;;;;;;;;6175039;28;20034;-84
2022/07/04 13:00:47;;;;;;;4.93;2.80;;;;;;;;;;6183065;28;20046;-84
2022/07/04 13:03:48;;;;;;;4.53;2.20;;;;;;;;;;6183877;28;20022;-84
2022/07/04 13:06:48;;;;;;;4.80;2.72;;;;;;;;;;6179613;28;20073;-84
2022/07/04 13:09:48;;;;;;;5.97;3.33;;;;;;;;;;6186605;28;20054;-84
2022/07/04 13:12:49;;;;;;;3.80;3.40;;;;;;;;;;6187917;28;20030;-84
2022/07/04 13:15:49;;;;;;;6.35;3.17;;;;;;;;;;6187736;28;20010;-84
2022/07/04 13:18:49;;;;;;;4.22;2.95;;;;;;;;;;6186822;28;20030;-84
2022/07/04 13:21:50;;;;;;;6.17;3.30;;;;;;;;;;6194247;28;20407;-84
2022/07/04 13:24:50;;;;;;;2.80;2.50;;;;;;;;;;6186321;28;20019;-84
2022/07/04 13:27:50;;;;;;;5.72;2.50;;;;;;;;;;6168498;28;20574;-85
2022/07/04 13:30:50;;;;;;;2.35;1.60;;;;;;;;;;6176390;28;20042;-85
2022/07/04 13:33:52;;;;;;;3.20;1.57;;;;;;;;;;6172836;28;20077;-84
2022/07/04 13:36:54;;;;;;;3.88;1.63;;;;;;;;;;6166888;28;20023;-85
2022/07/04 13:39:55;;;;;;;2.70;1.83;;;;;;;;;;6174453;28;20033;-85
2022/07/04 13:42:58;;;;;;;1.97;1.73;;;;;;;;;;6174416;28;20683;-85
2022/07/04 13:45:58;;;;;;;2.40;1.80;;;;;;;;;;6169605;28;20038;-85
2022/07/04 13:48:59;;;;;;;3.25;1.85;;;;;;;;;;6177905;28;20348;-85
2022/07/04 13:51:59;;;;;;;5.43;2.03;;;;;;;;;;6172557;28;20027;-85
2022/07/04 13:54:59;;;;;;;3.17;2.10;;;;;;;;;;6183466;28;20053;-85
2022/07/04 13:58:03;;;;;;;5.33;2.00;;;;;;;;;;6176734;28;20558;-85
2022/07/04 14:01:03;;;;;;;3.58;2.30;;;;;;;;;;6179532;28;20046;-85
2022/07/04 14:04:03;;;;;;;3.50;2.43;;;;;;;;;;6185810;28;20033;-85
2022/07/04 14:07:03;;;;;;;3.90;2.67;;;;;;;;;;6192645;28;20011;-85
2022/07/04 14:10:04;;;;;;;4.83;3.10;;;;;;;;;;6191639;28;20438;-86
2022/07/04 14:13:04;;;;;;;2.60;2.30;;;;;;;;;;6192165;28;20436;-85
2022/07/04 14:16:05;;;;;;;3.67;2.30;;;;;;;;;;6191608;28;20040;-85
2022/07/04 14:19:06;;;;;;;3.63;2.90;;;;;;;;;;6186990;28;20042;-85
2022/07/04 14:22:06;;;;;;;6.23;2.70;;;;;;;;;;6188561;28;20030;-85
2022/07/04 14:25:06;;;;;;;4.83;2.97;;;;;;;;;;6188010;28;20823;-85
2022/07/04 14:28:07;;;;;;;6.78;3.13;;;;;;;;;;6190323;28;20626;-85
2022/07/04 14:31:07;;;;;;;4.53;2.90;;;;;;;;;;6187959;28;20113;-85
2022/07/04 14:34:10;;;;;;;7.40;2.80;;;;;;;;;;6189851;28;20034;-85
2022/07/04 14:37:10;;;;;;;3.78;2.53;;;;;;;;;;6188769;28;20022;-85
2022/07/04 14:40:10;;;;;;;2.05;1.95;;;;;;;;;;6191219;28;20025;-85
2022/07/04 14:43:11;;;;;;;5.50;2.30;;;;;;;;;;6190864;28;20022;-86
2022/07/04 14:46:11;;;;;;;3.50;2.40;;;;;;;;;;6191941;28;20045;-85
2022/07/04 14:49:11;;;;;;;5.93;2.20;;;;;;;;;;6189060;28;20073;-85
2022/07/04 14:52:11;;;;;;;2.77;1.90;;;;;;;;;;6184000;28;20324;-86
2022/07/04 14:55:11;;;;;;;2.73;2.10;;;;;;;;;;6189320;28;20026;-86
2022/07/04 14:58:13;;;;;;;3.43;2.27;;;;;;;;;;6174843;28;20084;-86
2022/07/04 15:01:13;;;;;;;1.63;1.52;;;;;;;;;;6170887;28;20030;-86
2022/07/04 15:04:13;;;;;;;4.28;1.60;;;;;;;;;;6178203;28;20442;-85
2022/07/04 15:07:13;;;;;;;3.05;1.17;;;;;;;;;;6171283;28;20022;-85
2022/07/04 15:10:14;;;;;;;2.60;2.07;;;;;;;;;;6183687;28;20606;-85
2022/07/04 15:13:15;;;;;;;7.35;2.63;;;;;;;;;;6181308;28;20736;-86
2022/07/04 15:16:15;;;;;;;10.35;2.10;;;;;;;;;;6185221;28;20033;-86
2022/07/04 15:19:18;;;;;;;2.90;1.83;;;;;;;;;;6184476;28;20022;-86
2022/07/04 15:25:37;;;;;;;4.35;1.70;;;;;;;;;;6190822;28;20030;-86
2022/07/04 15:28:37;;;;;;;3.58;1.70;;;;;;;;;;6185449;28;20618;-85
2022/07/04 15:31:38;;;;;;;5.00;1.63;;;;;;;;;;6176257;28;20654;-85
2022/07/04 15:34:38;;;;;;;2.97;1.97;;;;;;;;;;6181914;28;20109;-85
2022/07/04 15:37:38;;;;;;;5.45;2.20;;;;;;;;;;6179104;28;20146;-85
2022/07/04 15:40:41;;;;;;;2.95;1.80;;;;;;;;;;6184703;28;20475;-85
2022/07/04 15:43:41;;;;;;;5.25;2.30;;;;;;;;;;6183976;28;20038;-86
2022/07/04 15:50:00;;;;;;;2.15;1.95;;;;;;;;;;6182106;28;20034;-85
2022/07/04 15:53:01;;;;;;;3.53;1.90;;;;;;;;;;6182066;28;20093;-85
2022/07/04 15:56:01;;;;;;;1.83;1.52;;;;;;;;;;6177752;28;20257;-85
2022/07/04 15:59:01;;;;;;;4.27;2.37;;;;;;;;;;6180925;28;20015;-85
2022/07/04 16:02:01;;;;;;;3.27;2.17;;;;;;;;;;6179059;28;20105;-85
2022/07/04 16:05:02;;;;;;;2.50;1.50;;;;;;;;;;6183840;28;20050;-85
2022/07/04 16:08:02;;;;;;;3.28;1.92;;;;;;;;;;6170299;28;20102;-85
2022/07/04 16:11:02;;;;;;;3.23;1.63;;;;;;;;;;6188175;28;20041;-85
2022/07/04 16:14:02;;;;;;;3.07;1.57;;;;;;;;;;6187280;28;20021;-86
2022/07/04 16:17:03;;;;;;;3.88;1.52;;;;;;;;;;6188144;28;20494;-86
2022/07/04 16:20:04;;;;;;;3.77;1.70;;;;;;;;;;6186362;28;20501;-85
2022/07/04 16:23:04;;;;;;;3.72;1.65;;;;;;;;;;6188020;28;20018;-86
2022/07/04 16:26:04;;;;;;;4.13;1.65;;;;;;;;;;6187145;28;20147;-86
2022/07/04 16:29:05;;;;;;;5.27;2.13;;;;;;;;;;6186758;28;20307;-85
2022/07/04 16:32:06;;;;;;;1.50;1.40;;;;;;;;;;6188173;28;20023;-85
2022/07/04 16:35:07;;;;;;;4.10;1.77;;;;;;;;;;6187002;28;20041;-86
2022/07/04 16:38:07;;;;;;;5.18;1.92;;;;;;;;;;6185439;28;20104;-87
2022/07/04 16:41:07;;;;;;;3.90;1.83;;;;;;;;;;6184151;28;20022;-85
2022/07/04 16:44:07;;;;;;;;;;;;;;;;;;6188706;28;20481;-85
2022/07/04 16:47:07;;;;;;;2.08;1.63;;;;;;;;;;6185312;28;20437;-85
2022/07/04 16:50:08;;;;;;;;;;;;;;;;;;6187623;28;20018;-86
2022/07/04 16:53:08;;;;;;;2.25;1.75;;;;;;;;;;6189557;28;19912;-85
2022/07/04 16:56:08;;;;;;;;;;;;;;;;;;6182492;28;20113;-85
2022/07/04 16:59:08;;;;;;;3.05;1.73;;;;;;;;;;6173443;28;20282;-85
2022/07/04 17:02:08;;;;;;;;;;;;;;;;;;6172521;28;20045;-85
2022/07/04 17:05:08;;;;;;;1.95;1.58;;;;;;;;;;6177006;28;20420;-85
2022/07/04 17:08:09;;;;;;;;;;;;;;;;;;6178368;28;20026;-86
2022/07/04 17:11:09;;;;;;;3.10;2.00;;;;;;;;;;6181001;28;19922;-85
2022/07/04 17:14:09;;;;;;;5.32;1.80;;;;;;;;;;6184664;28;20022;-85
2022/07/04 17:17:11;;;;;;;2.75;1.73;;;;;;;;;;6180133;28;20047;-85
2022/07/04 17:20:12;;;;;;;2.75;1.55;;;;;;;;;;6179505;28;20030;-85
2022/07/04 17:23:12;;;;;;;6.28;1.52;;;;;;;;;;6184087;28;20053;-85
2022/07/04 17:26:13;;;;;;;;;;;;;;;;;;6178069;28;20023;-85
2022/07/04 17:29:13;;;;;;;2.40;1.67;;;;;;;;;;6179715;28;19914;-85
2022/07/04 17:32:13;;;;;;;3.20;2.20;;;;;;;;;;6175564;28;20209;-85
2022/07/04 17:35:13;;;;;;;;;;;;;;;;;;6179201;28;20030;-85
2022/07/04 17:38:13;;;;;;;2.70;1.60;;;;;;;;;;6189837;28;19933;-86
2022/07/04 17:44:33;;;;;;;4.20;1.70;;;;;;;;;;6174304;28;20483;-86
2022/07/04 17:47:34;;;;;;;5.13;1.92;;;;;;;;;;6183662;28;20208;-86
2022/07/04 17:50:34;;;;;;;3.33;1.73;;;;;;;;;;6183331;28;20251;-85
2022/07/04 17:53:34;;;;;;;3.15;1.60;;;;;;;;;;6177122;28;20018;-85
2022/07/04 17:56:35;;;;;;;2.77;1.83;;;;;;;;;;6178784;28;20493;-85
2022/07/04 17:59:35;;;;;;;4.75;1.88;;;;;;;;;;6185132;28;20018;-85
2022/07/04 18:02:35;;;;;;;3.83;2.20;;;;;;;;;;6184287;28;20117;-86
2022/07/04 18:05:38;;;;;;;4.78;1.73;;;;;;;;;;6184883;28;19999;-86
2022/07/04 18:08:38;;;;;;;3.60;2.47;;;;;;;;;;6184070;28;20025;-86
2022/07/04 18:11:38;;;;;;;8.57;2.80;;;;;;;;;;6184000;28;20058;-85
2022/07/04 18:14:39;;;;;;;5.78;2.45;;;;;;;;;;6184186;28;20026;-86
2022/07/04 18:17:39;;;;;;;7.13;3.37;;;;;;;;;;6183904;28;20050;-86
2022/07/04 18:20:39;;;;;;;8.77;3.47;;;;;;;;;;6182841;28;20033;-86
2022/07/04 18:23:39;;;;;;;7.03;3.05;;;;;;;;;;6184328;28;20669;-86
2022/07/04 18:26:40;;;;;;;5.53;2.63;;;;;;;;;;6185146;28;20026;-86
2022/07/04 18:29:40;;;;;;;7.40;2.50;;;;;;;;;;6177233;28;20026;-86
2022/07/04 18:32:40;;;;;;;6.00;2.50;;;;;;;;;;6180273;28;20023;-86
2022/07/04 18:35:43;;;;;;;6.37;2.60;;;;;;;;;;6176464;28;20057;-86
2022/07/04 18:38:44;;;;;;;5.88;2.80;;;;;;;;;;6175924;28;20022;-85
2022/07/04 18:45:03;;;;;;;7.97;2.97;;;;;;;;;;6171321;28;20023;-86